Terminal Aerodrome Forecast
Issued by NWS

Current Version | Previous Version | Text Only | Print | Product List | Glossary On
Versions: 1 2 3 4 5 6 7 8 9 10 11 12 13 14 15
000
FTUS43 KGRB 122000 AAA
TAFCWA
TAF AMD
KCWA 122003Z 1220/1318 22004KT P6SM VCSH SCT020 OVC050
      TEMPO 1220/1224 4SM TSRA OVC020CB
     FM130200 28005KT P6SM BKN100
     FM131200 29011KT P6SM SCT100=

USA.gov is the U.S. government's official web portal to all federal, state and local government web resources and services.